sensor_id;sensor_type;location;lat;lon;timestamp;pressure;altitude;pressure_sealevel;temperature;humidity
16016;BME280;8112;53.592;10.184;2022-11-02T00:04:44;101203.03;;;10.40;100.00
16016;BME280;8112;53.592;10.184;2022-11-02T00:09:46;101213.69;;;10.37;100.00
16016;BME280;8112;53.592;10.184;2022-11-02T00:14:49;101208.94;;;10.46;100.00
16016;BME280;8112;53.592;10.184;2022-11-02T00:19:50;101197.47;;;10.47;100.00
16016;BME280;8112;53.592;10.184;2022-11-02T00:24:52;101197.31;;;10.50;100.00
16016;BME280;8112;53.592;10.184;2022-11-02T00:29:55;101195.22;;;10.57;100.00
16016;BME280;8112;53.592;10.184;2022-11-02T00:34:57;101190.78;;;10.57;100.00
16016;BME280;8112;53.592;10.184;2022-11-02T00:39:58;101188.59;;;10.65;100.00
16016;BME280;8112;53.592;10.184;2022-11-02T00:45:01;101183.06;;;10.70;100.00
16016;BME280;8112;53.592;10.184;2022-11-02T00:50:05;101172.91;;;10.80;100.00
16016;BME280;8112;53.592;10.184;2022-11-02T00:55:10;101170.41;;;10.77;100.00
16016;BME280;8112;53.592;10.184;2022-11-02T01:00:17;101166.94;;;10.76;100.00
16016;BME280;8112;53.592;10.184;2022-11-02T01:05:18;101155.88;;;10.69;100.00
16016;BME280;8112;53.592;10.184;2022-11-02T01:10:21;101153.00;;;10.74;100.00
16016;BME280;8112;53.592;10.184;2022-11-02T01:15:26;101142.75;;;10.68;100.00
16016;BME280;8112;53.592;10.184;2022-11-02T01:20:28;101152.31;;;10.71;100.00
16016;BME280;8112;53.592;10.184;2022-11-02T01:25:29;101151.44;;;10.70;100.00
16016;BME280;8112;53.592;10.184;2022-11-02T01:30:32;101141.06;;;10.67;100.00
16016;BME280;8112;53.592;10.184;2022-11-02T01:35:35;101128.91;;;10.64;100.00
16016;BME280;8112;53.592;10.184;2022-11-02T01:40:38;101130.16;;;10.57;100.00
16016;BME280;8112;53.592;10.184;2022-11-02T01:45:41;101128.69;;;10.51;100.00
16016;BME280;8112;53.592;10.184;2022-11-02T01:50:42;101127.63;;;10.38;100.00
16016;BME280;8112;53.592;10.184;2022-11-02T01:55:44;101120.41;;;10.41;100.00
16016;BME280;8112;53.592;10.184;2022-11-02T02:00:48;101113.31;;;10.44;100.00
16016;BME280;8112;53.592;10.184;2022-11-02T02:05:55;101101.44;;;10.52;100.00
16016;BME280;8112;53.592;10.184;2022-11-02T02:10:58;101102.03;;;10.58;100.00
16016;BME280;8112;53.592;10.184;2022-11-02T02:16:08;101111.66;;;10.59;100.00
16016;BME280;8112;53.592;10.184;2022-11-02T02:21:22;101104.16;;;10.67;100.00
16016;BME280;8112;53.592;10.184;2022-11-02T02:26:52;101098.47;;;10.75;100.00
16016;BME280;8112;53.592;10.184;2022-11-02T02:32:03;101089.41;;;10.80;100.00
16016;BME280;8112;53.592;10.184;2022-11-02T02:37:15;101074.94;;;11.04;100.00
16016;BME280;8112;53.592;10.184;2022-11-02T02:42:19;101070.09;;;11.12;100.00
16016;BME280;8112;53.592;10.184;2022-11-02T02:47:27;101066.50;;;11.13;100.00
16016;BME280;8112;53.592;10.184;2022-11-02T02:52:33;101073.25;;;11.19;100.00
16016;BME280;8112;53.592;10.184;2022-11-02T02:57:37;101071.97;;;11.26;100.00
16016;BME280;8112;53.592;10.184;2022-11-02T03:02:42;101067.53;;;11.26;100.00
16016;BME280;8112;53.592;10.184;2022-11-02T03:08:03;101069.91;;;11.31;100.00
16016;BME280;8112;53.592;10.184;2022-11-02T03:13:17;101076.97;;;11.31;100.00
16016;BME280;8112;53.592;10.184;2022-11-02T03:18:31;101072.13;;;11.23;100.00
16016;BME280;8112;53.592;10.184;2022-11-02T03:23:38;101074.78;;;11.07;100.00
16016;BME280;8112;53.592;10.184;2022-11-02T03:28:50;101063.22;;;11.09;100.00
16016;BME280;8112;53.592;10.184;2022-11-02T03:34:03;101068.63;;;11.06;100.00
16016;BME280;8112;53.592;10.184;2022-11-02T03:39:10;101065.25;;;10.88;100.00
16016;BME280;8112;53.592;10.184;2022-11-02T03:44:18;101054.53;;;10.75;100.00
16016;BME280;8112;53.592;10.184;2022-11-02T03:49:26;101046.69;;;10.58;100.00
16016;BME280;8112;53.592;10.184;2022-11-02T03:54:38;101070.94;;;10.64;100.00
16016;BME280;8112;53.592;10.184;2022-11-02T03:59:41;101062.41;;;10.59;100.00
16016;BME280;8112;53.592;10.184;2022-11-02T04:04:48;101071.19;;;10.60;100.00
16016;BME280;8112;53.592;10.184;2022-11-02T04:09:51;101078.63;;;10.51;100.00
16016;BME280;8112;53.592;10.184;2022-11-02T04:14:54;101079.19;;;10.40;100.00
16016;BME280;8112;53.592;10.184;2022-11-02T04:19:57;101076.09;;;10.32;100.00
16016;BME280;8112;53.592;10.184;2022-11-02T04:25:00;101085.88;;;10.30;100.00
16016;BME280;8112;53.592;10.184;2022-11-02T04:30:32;101083.06;;;10.33;100.00
16016;BME280;8112;53.592;10.184;2022-11-02T04:35:36;101086.88;;;10.27;100.00
16016;BME280;8112;53.592;10.184;2022-11-02T04:40:38;101079.06;;;10.26;100.00
16016;BME280;8112;53.592;10.184;2022-11-02T04:45:40;101080.09;;;10.39;100.00
16016;BME280;8112;53.592;10.184;2022-11-02T04:50:43;101078.25;;;10.41;100.00
16016;BME280;8112;53.592;10.184;2022-11-02T04:55:45;101076.63;;;10.39;100.00
16016;BME280;8112;53.592;10.184;2022-11-02T05:00:48;101079.44;;;10.36;100.00
16016;BME280;8112;53.592;10.184;2022-11-02T05:05:54;101076.00;;;10.34;100.00
16016;BME280;8112;53.592;10.184;2022-11-02T05:10:57;101076.63;;;10.39;100.00
16016;BME280;8112;53.592;10.184;2022-11-02T05:16:01;101073.47;;;10.32;100.00
16016;BME280;8112;53.592;10.184;2022-11-02T05:21:04;101085.69;;;10.33;100.00
16016;BME280;8112;53.592;10.184;2022-11-02T05:26:09;101074.06;;;10.37;100.00
16016;BME280;8112;53.592;10.184;2022-11-02T05:31:14;101082.72;;;10.39;100.00
16016;BME280;8112;53.592;10.184;2022-11-02T05:36:18;101085.38;;;10.39;100.00
16016;BME280;8112;53.592;10.184;2022-11-02T05:41:23;101073.00;;;10.41;100.00
16016;BME280;8112;53.592;10.184;2022-11-02T05:46:28;101076.09;;;10.32;100.00
16016;BME280;8112;53.592;10.184;2022-11-02T05:51:31;101078.25;;;10.24;100.00
16016;BME280;8112;53.592;10.184;2022-11-02T05:56:33;101078.69;;;10.16;100.00
16016;BME280;8112;53.592;10.184;2022-11-02T06:01:34;101086.81;;;10.11;100.00
16016;BME280;8112;53.592;10.184;2022-11-02T06:06:37;101080.78;;;10.09;100.00
16016;BME280;8112;53.592;10.184;2022-11-02T06:11:39;101083.25;;;10.12;100.00
16016;BME280;8112;53.592;10.184;2022-11-02T06:16:40;101086.59;;;10.16;100.00
16016;BME280;8112;53.592;10.184;2022-11-02T06:21:43;101080.06;;;10.23;100.00
16016;BME280;8112;53.592;10.184;2022-11-02T06:26:45;101086.47;;;10.35;100.00
16016;BME280;8112;53.592;10.184;2022-11-02T06:31:47;101094.81;;;10.61;100.00
16016;BME280;8112;53.592;10.184;2022-11-02T06:36:50;101090.25;;;10.81;100.00
16016;BME280;8112;53.592;10.184;2022-11-02T06:41:52;101098.94;;;10.83;100.00
16016;BME280;8112;53.592;10.184;2022-11-02T06:46:53;101102.16;;;10.88;100.00
16016;BME280;8112;53.592;10.184;2022-11-02T06:51:57;101111.34;;;10.97;100.00
16016;BME280;8112;53.592;10.184;2022-11-02T06:56:58;101115.00;;;10.94;100.00
16016;BME280;8112;53.592;10.184;2022-11-02T07:02:00;101111.69;;;11.07;100.00
16016;BME280;8112;53.592;10.184;2022-11-02T07:07:03;101113.72;;;11.34;100.00
16016;BME280;8112;53.592;10.184;2022-11-02T07:12:05;101115.28;;;11.38;100.00
16016;BME280;8112;53.592;10.184;2022-11-02T07:17:06;101112.72;;;11.36;100.00
16016;BME280;8112;53.592;10.184;2022-11-02T07:22:09;101107.06;;;11.43;100.00
16016;BME280;8112;53.592;10.184;2022-11-02T07:27:11;101107.59;;;11.49;100.00
16016;BME280;8112;53.592;10.184;2022-11-02T07:32:13;101106.38;;;11.71;100.00
16016;BME280;8112;53.592;10.184;2022-11-02T07:37:16;101114.56;;;11.97;100.00
16016;BME280;8112;53.592;10.184;2022-11-02T07:42:18;101121.53;;;11.98;100.00
16016;BME280;8112;53.592;10.184;2022-11-02T07:47:23;101112.72;;;12.14;100.00
16016;BME280;8112;53.592;10.184;2022-11-02T07:52:29;101113.94;;;12.08;100.00
16016;BME280;8112;53.592;10.184;2022-11-02T07:57:31;101113.13;;;12.22;100.00
16016;BME280;8112;53.592;10.184;2022-11-02T08:02:32;101112.31;;;12.36;100.00
16016;BME280;8112;53.592;10.184;2022-11-02T08:07:35;101109.44;;;12.82;100.00
16016;BME280;8112;53.592;10.184;2022-11-02T08:12:37;101108.78;;;12.93;100.00
16016;BME280;8112;53.592;10.184;2022-11-02T08:17:39;101109.38;;;12.69;100.00
16016;BME280;8112;53.592;10.184;2022-11-02T08:22:41;101120.09;;;12.95;100.00
16016;BME280;8112;53.592;10.184;2022-11-02T08:27:43;101112.91;;;12.97;100.00
16016;BME280;8112;53.592;10.184;2022-11-02T08:32:45;101119.94;;;12.84;100.00
16016;BME280;8112;53.592;10.184;2022-11-02T08:37:52;101131.91;;;13.04;100.00
16016;BME280;8112;53.592;10.184;2022-11-02T08:42:55;101133.13;;;13.13;100.00
16016;BME280;8112;53.592;10.184;2022-11-02T08:47:57;101127.34;;;13.06;100.00
16016;BME280;8112;53.592;10.184;2022-11-02T08:53:00;101135.13;;;12.95;100.00
16016;BME280;8112;53.592;10.184;2022-11-02T08:58:02;101130.88;;;13.07;100.00
16016;BME280;8112;53.592;10.184;2022-11-02T09:03:05;101123.69;;;13.51;100.00
16016;BME280;8112;53.592;10.184;2022-11-02T09:08:10;101150.13;;;13.23;100.00
16016;BME280;8112;53.592;10.184;2022-11-02T09:13:14;101143.63;;;13.42;100.00
16016;BME280;8112;53.592;10.184;2022-11-02T09:18:17;101153.75;;;13.77;100.00
16016;BME280;8112;53.592;10.184;2022-11-02T09:23:21;101141.53;;;13.62;100.00
16016;BME280;8112;53.592;10.184;2022-11-02T09:28:23;101145.78;;;13.22;100.00
16016;BME280;8112;53.592;10.184;2022-11-02T09:33:24;101173.91;;;13.38;100.00
16016;BME280;8112;53.592;10.184;2022-11-02T09:38:27;101167.84;;;13.50;100.00
16016;BME280;8112;53.592;10.184;2022-11-02T09:43:40;101182.69;;;13.53;100.00
16016;BME280;8112;53.592;10.184;2022-11-02T09:48:45;101173.00;;;13.66;100.00
16016;BME280;8112;53.592;10.184;2022-11-02T09:53:58;101175.53;;;13.68;100.00
16016;BME280;8112;53.592;10.184;2022-11-02T09:59:09;101171.16;;;13.39;100.00
16016;BME280;8112;53.592;10.184;2022-11-02T10:04:33;101181.44;;;13.59;100.00
16016;BME280;8112;53.592;10.184;2022-11-02T10:09:44;101183.34;;;13.57;100.00
16016;BME280;8112;53.592;10.184;2022-11-02T10:14:54;101185.41;;;13.51;100.00
16016;BME280;8112;53.592;10.184;2022-11-02T10:20:02;101186.16;;;13.53;100.00
16016;BME280;8112;53.592;10.184;2022-11-02T10:25:12;101203.97;;;13.37;100.00
16016;BME280;8112;53.592;10.184;2022-11-02T10:30:18;101215.50;;;12.18;100.00
16016;BME280;8112;53.592;10.184;2022-11-02T10:35:24;101243.41;;;11.10;100.00
16016;BME280;8112;53.592;10.184;2022-11-02T10:40:51;101237.31;;;11.25;100.00
16016;BME280;8112;53.592;10.184;2022-11-02T10:46:09;101257.59;;;11.41;100.00
16016;BME280;8112;53.592;10.184;2022-11-02T10:51:15;101264.78;;;11.71;100.00
16016;BME280;8112;53.592;10.184;2022-11-02T10:56:22;101257.56;;;12.37;100.00
16016;BME280;8112;53.592;10.184;2022-11-02T11:01:25;101263.72;;;12.38;100.00
16016;BME280;8112;53.592;10.184;2022-11-02T11:06:29;101262.75;;;12.69;100.00
16016;BME280;8112;53.592;10.184;2022-11-02T11:11:35;101250.19;;;12.73;100.00
16016;BME280;8112;53.592;10.184;2022-11-02T11:16:39;101267.75;;;12.44;100.00
16016;BME280;8112;53.592;10.184;2022-11-02T11:21:41;101274.28;;;12.52;100.00
16016;BME280;8112;53.592;10.184;2022-11-02T11:26:44;101272.88;;;12.47;100.00
16016;BME280;8112;53.592;10.184;2022-11-02T11:31:46;101266.59;;;12.64;100.00
16016;BME280;8112;53.592;10.184;2022-11-02T11:36:48;101270.44;;;12.58;100.00
16016;BME280;8112;53.592;10.184;2022-11-02T11:41:51;101273.78;;;12.31;100.00
16016;BME280;8112;53.592;10.184;2022-11-02T11:46:55;101294.41;;;12.24;100.00
16016;BME280;8112;53.592;10.184;2022-11-02T11:51:59;101298.13;;;12.36;100.00
16016;BME280;8112;53.592;10.184;2022-11-02T11:57:20;101299.03;;;12.51;100.00
16016;BME280;8112;53.592;10.184;2022-11-02T12:02:24;101300.47;;;12.57;100.00
16016;BME280;8112;53.592;10.184;2022-11-02T12:07:48;101303.31;;;12.54;100.00
16016;BME280;8112;53.592;10.184;2022-11-02T12:13:03;101319.47;;;12.33;100.00
16016;BME280;8112;53.592;10.184;2022-11-02T12:18:23;101338.31;;;11.45;100.00
16016;BME280;8112;53.592;10.184;2022-11-02T12:23:43;101330.78;;;11.04;100.00
16016;BME280;8112;53.592;10.184;2022-11-02T12:28:56;101327.59;;;10.97;100.00
16016;BME280;8112;53.592;10.184;2022-11-02T12:34:16;101343.97;;;11.04;100.00
16016;BME280;8112;53.592;10.184;2022-11-02T12:39:28;101359.97;;;12.02;100.00
16016;BME280;8112;53.592;10.184;2022-11-02T12:44:43;101347.66;;;13.97;100.00
16016;BME280;8112;53.592;10.184;2022-11-02T12:49:55;101348.13;;;15.25;100.00
16016;BME280;8112;53.592;10.184;2022-11-02T12:55:02;101336.31;;;15.68;100.00
16016;BME280;8112;53.592;10.184;2022-11-02T13:00:16;101361.28;;;15.65;100.00
16016;BME280;8112;53.592;10.184;2022-11-02T13:05:21;101358.28;;;15.96;100.00
16016;BME280;8112;53.592;10.184;2022-11-02T13:10:27;101361.81;;;16.21;100.00
16016;BME280;8112;53.592;10.184;2022-11-02T13:15:33;101373.56;;;16.05;100.00
16016;BME280;8112;53.592;10.184;2022-11-02T13:20:40;101369.88;;;14.91;100.00
16016;BME280;8112;53.592;10.184;2022-11-02T13:25:46;101399.50;;;14.16;100.00
16016;BME280;8112;53.592;10.184;2022-11-02T13:30:54;101420.06;;;13.54;100.00
16016;BME280;8112;53.592;10.184;2022-11-02T13:35:56;101440.09;;;13.58;100.00
16016;BME280;8112;53.592;10.184;2022-11-02T13:41:07;101440.19;;;13.26;100.00
16016;BME280;8112;53.592;10.184;2022-11-02T13:46:23;101449.81;;;13.13;100.00
16016;BME280;8112;53.592;10.184;2022-11-02T13:51:34;101461.91;;;12.86;100.00
16016;BME280;8112;53.592;10.184;2022-11-02T13:56:37;101477.78;;;12.86;100.00
16016;BME280;8112;53.592;10.184;2022-11-02T14:01:43;101474.63;;;12.79;100.00
16016;BME280;8112;53.592;10.184;2022-11-02T14:06:50;101481.75;;;13.09;100.00
16016;BME280;8112;53.592;10.184;2022-11-02T14:12:10;101474.03;;;13.21;100.00
16016;BME280;8112;53.592;10.184;2022-11-02T14:17:15;101467.72;;;13.07;100.00
16016;BME280;8112;53.592;10.184;2022-11-02T14:22:17;101478.78;;;12.83;100.00
16016;BME280;8112;53.592;10.184;2022-11-02T14:27:28;101481.03;;;12.75;100.00
16016;BME280;8112;53.592;10.184;2022-11-02T14:32:48;101474.88;;;12.75;100.00
16016;BME280;8112;53.592;10.184;2022-11-02T14:38:05;101481.69;;;12.79;100.00
16016;BME280;8112;53.592;10.184;2022-11-02T14:48:49;101488.97;;;12.59;100.00
16016;BME280;8112;53.592;10.184;2022-11-02T14:53:55;101503.63;;;12.49;100.00
16016;BME280;8112;53.592;10.184;2022-11-02T14:58:57;101502.88;;;12.47;100.00
16016;BME280;8112;53.592;10.184;2022-11-02T15:04:05;101497.47;;;12.32;100.00
16016;BME280;8112;53.592;10.184;2022-11-02T15:09:09;101508.88;;;12.17;100.00
16016;BME280;8112;53.592;10.184;2022-11-02T15:19:49;101506.75;;;11.90;100.00
16016;BME280;8112;53.592;10.184;2022-11-02T15:24:53;101494.94;;;11.79;100.00
16016;BME280;8112;53.592;10.184;2022-11-02T15:29:58;101500.69;;;11.70;100.00
16016;BME280;8112;53.592;10.184;2022-11-02T15:35:01;101499.78;;;11.53;100.00
16016;BME280;8112;53.592;10.184;2022-11-02T15:40:16;101500.06;;;11.47;100.00
16016;BME280;8112;53.592;10.184;2022-11-02T15:45:39;101502.09;;;11.42;100.00
16016;BME280;8112;53.592;10.184;2022-11-02T15:50:51;101503.47;;;11.32;100.00
16016;BME280;8112;53.592;10.184;2022-11-02T15:56:12;101508.19;;;11.25;100.00
16016;BME280;8112;53.592;10.184;2022-11-02T16:01:19;101516.66;;;11.14;100.00
16016;BME280;8112;53.592;10.184;2022-11-02T16:06:28;101520.06;;;10.98;100.00
16016;BME280;8112;53.592;10.184;2022-11-02T16:11:33;101512.63;;;10.88;100.00
16016;BME280;8112;53.592;10.184;2022-11-02T16:16:45;101517.44;;;10.79;100.00
16016;BME280;8112;53.592;10.184;2022-11-02T16:21:48;101528.34;;;10.72;100.00
16016;BME280;8112;53.592;10.184;2022-11-02T16:26:50;101530.03;;;10.73;100.00
16016;BME280;8112;53.592;10.184;2022-11-02T16:31:52;101536.81;;;10.59;100.00
16016;BME280;8112;53.592;10.184;2022-11-02T16:36:55;101543.09;;;10.57;100.00
16016;BME280;8112;53.592;10.184;2022-11-02T16:41:59;101546.84;;;10.51;100.00
16016;BME280;8112;53.592;10.184;2022-11-02T16:47:15;101542.88;;;10.42;100.00
16016;BME280;8112;53.592;10.184;2022-11-02T16:52:20;101550.88;;;10.39;100.00
16016;BME280;8112;53.592;10.184;2022-11-02T16:57:24;101550.59;;;10.26;100.00
16016;BME280;8112;53.592;10.184;2022-11-02T17:02:33;101549.31;;;10.14;100.00
16016;BME280;8112;53.592;10.184;2022-11-02T17:07:39;101559.03;;;10.13;100.00
16016;BME280;8112;53.592;10.184;2022-11-02T17:12:43;101562.03;;;10.04;100.00
16016;BME280;8112;53.592;10.184;2022-11-02T17:17:45;101571.28;;;9.94;100.00
16016;BME280;8112;53.592;10.184;2022-11-02T17:22:53;101576.69;;;9.91;100.00
16016;BME280;8112;53.592;10.184;2022-11-02T17:27:57;101582.13;;;9.86;100.00
16016;BME280;8112;53.592;10.184;2022-11-02T17:33:05;101584.13;;;9.81;100.00
16016;BME280;8112;53.592;10.184;2022-11-02T17:38:10;101581.81;;;9.73;100.00
16016;BME280;8112;53.592;10.184;2022-11-02T17:43:13;101589.41;;;9.59;100.00
16016;BME280;8112;53.592;10.184;2022-11-02T17:48:14;101596.44;;;9.58;100.00
16016;BME280;8112;53.592;10.184;2022-11-02T17:53:18;101594.66;;;9.59;100.00
16016;BME280;8112;53.592;10.184;2022-11-02T17:58:19;101609.66;;;9.57;100.00
16016;BME280;8112;53.592;10.184;2022-11-02T18:03:21;101605.56;;;9.49;100.00
16016;BME280;8112;53.592;10.184;2022-11-02T18:08:26;101607.16;;;9.53;100.00
16016;BME280;8112;53.592;10.184;2022-11-02T18:13:27;101606.34;;;9.51;100.00
16016;BME280;8112;53.592;10.184;2022-11-02T18:18:29;101608.44;;;9.43;100.00
16016;BME280;8112;53.592;10.184;2022-11-02T18:23:32;101603.22;;;9.41;100.00
16016;BME280;8112;53.592;10.184;2022-11-02T18:28:35;101606.91;;;9.37;100.00
16016;BME280;8112;53.592;10.184;2022-11-02T18:33:37;101613.03;;;9.38;100.00
16016;BME280;8112;53.592;10.184;2022-11-02T18:38:40;101601.00;;;9.32;100.00
16016;BME280;8112;53.592;10.184;2022-11-02T18:43:42;101601.03;;;9.31;100.00
16016;BME280;8112;53.592;10.184;2022-11-02T18:48:44;101603.63;;;9.32;100.00
16016;BME280;8112;53.592;10.184;2022-11-02T18:53:53;101602.09;;;9.26;100.00
16016;BME280;8112;53.592;10.184;2022-11-02T18:58:55;101592.84;;;9.16;100.00
16016;BME280;8112;53.592;10.184;2022-11-02T19:03:58;101593.38;;;9.02;100.00
16016;BME280;8112;53.592;10.184;2022-11-02T19:09:01;101601.09;;;9.07;100.00
16016;BME280;8112;53.592;10.184;2022-11-02T19:14:21;101592.53;;;9.02;100.00
16016;BME280;8112;53.592;10.184;2022-11-02T19:19:23;101595.28;;;8.98;100.00
16016;BME280;8112;53.592;10.184;2022-11-02T19:24:26;101591.63;;;9.03;100.00
16016;BME280;8112;53.592;10.184;2022-11-02T19:29:28;101598.13;;;8.92;100.00
16016;BME280;8112;53.592;10.184;2022-11-02T19:34:30;101587.06;;;8.84;100.00
16016;BME280;8112;53.592;10.184;2022-11-02T19:39:34;101585.47;;;8.80;100.00
16016;BME280;8112;53.592;10.184;2022-11-02T19:44:36;101577.47;;;8.83;100.00
16016;BME280;8112;53.592;10.184;2022-11-02T19:49:38;101579.72;;;8.70;100.00
16016;BME280;8112;53.592;10.184;2022-11-02T19:54:41;101581.00;;;8.58;100.00
16016;BME280;8112;53.592;10.184;2022-11-02T19:59:42;101580.31;;;8.53;100.00
16016;BME280;8112;53.592;10.184;2022-11-02T20:04:44;101590.72;;;8.56;100.00
16016;BME280;8112;53.592;10.184;2022-11-02T20:09:47;101583.06;;;8.50;100.00
16016;BME280;8112;53.592;10.184;2022-11-02T20:14:50;101591.78;;;8.50;100.00
16016;BME280;8112;53.592;10.184;2022-11-02T20:19:51;101592.06;;;8.43;100.00
16016;BME280;8112;53.592;10.184;2022-11-02T20:24:54;101596.59;;;8.37;100.00
16016;BME280;8112;53.592;10.184;2022-11-02T20:29:56;101593.34;;;8.31;100.00
16016;BME280;8112;53.592;10.184;2022-11-02T20:34:58;101585.72;;;8.23;100.00
16016;BME280;8112;53.592;10.184;2022-11-02T20:40:01;101576.13;;;8.22;100.00
16016;BME280;8112;53.592;10.184;2022-11-02T20:45:03;101576.09;;;8.23;100.00
16016;BME280;8112;53.592;10.184;2022-11-02T20:50:05;101573.50;;;8.22;100.00
16016;BME280;8112;53.592;10.184;2022-11-02T20:55:08;101562.09;;;8.23;100.00
16016;BME280;8112;53.592;10.184;2022-11-02T21:00:12;101559.81;;;8.13;100.00
16016;BME280;8112;53.592;10.184;2022-11-02T21:05:14;101542.34;;;8.12;100.00
16016;BME280;8112;53.592;10.184;2022-11-02T21:10:17;101548.03;;;8.00;100.00
16016;BME280;8112;53.592;10.184;2022-11-02T21:15:19;101548.25;;;7.94;100.00
16016;BME280;8112;53.592;10.184;2022-11-02T21:20:20;101546.03;;;7.81;100.00
16016;BME280;8112;53.592;10.184;2022-11-02T21:25:24;101543.22;;;7.88;100.00
16016;BME280;8112;53.592;10.184;2022-11-02T21:30:26;101534.97;;;7.73;100.00
16016;BME280;8112;53.592;10.184;2022-11-02T21:35:30;101542.97;;;7.68;100.00
16016;BME280;8112;53.592;10.184;2022-11-02T21:40:33;101536.03;;;7.67;100.00
16016;BME280;8112;53.592;10.184;2022-11-02T21:45:34;101532.28;;;7.75;100.00
16016;BME280;8112;53.592;10.184;2022-11-02T21:50:36;101535.13;;;7.68;100.00
16016;BME280;8112;53.592;10.184;2022-11-02T21:55:39;101526.34;;;7.69;100.00
16016;BME280;8112;53.592;10.184;2022-11-02T22:00:40;101518.72;;;7.62;100.00
16016;BME280;8112;53.592;10.184;2022-11-02T22:06:00;101515.16;;;7.64;100.00
16016;BME280;8112;53.592;10.184;2022-11-02T22:11:03;101514.94;;;7.70;100.00
16016;BME280;8112;53.592;10.184;2022-11-02T22:16:12;101506.03;;;7.75;100.00
16016;BME280;8112;53.592;10.184;2022-11-02T22:21:16;101513.81;;;7.78;100.00
16016;BME280;8112;53.592;10.184;2022-11-02T22:26:20;101508.56;;;7.78;100.00
16016;BME280;8112;53.592;10.184;2022-11-02T22:31:24;101502.59;;;7.73;100.00
16016;BME280;8112;53.592;10.184;2022-11-02T22:36:27;101515.06;;;7.66;100.00
16016;BME280;8112;53.592;10.184;2022-11-02T22:41:33;101498.66;;;7.61;100.00
16016;BME280;8112;53.592;10.184;2022-11-02T22:46:36;101502.97;;;7.62;100.00
16016;BME280;8112;53.592;10.184;2022-11-02T22:51:40;101495.22;;;7.59;100.00
16016;BME280;8112;53.592;10.184;2022-11-02T22:56:45;101488.47;;;7.51;100.00
16016;BME280;8112;53.592;10.184;2022-11-02T23:01:47;101480.63;;;7.51;100.00
16016;BME280;8112;53.592;10.184;2022-11-02T23:06:50;101477.13;;;7.51;100.00
16016;BME280;8112;53.592;10.184;2022-11-02T23:11:53;101479.59;;;7.55;100.00
16016;BME280;8112;53.592;10.184;2022-11-02T23:16:54;101474.50;;;7.51;100.00
16016;BME280;8112;53.592;10.184;2022-11-02T23:21:57;101466.84;;;7.45;100.00
16016;BME280;8112;53.592;10.184;2022-11-02T23:27:18;101467.00;;;7.40;100.00
16016;BME280;8112;53.592;10.184;2022-11-02T23:32:20;101462.59;;;7.40;100.00
16016;BME280;8112;53.592;10.184;2022-11-02T23:37:27;101447.72;;;7.41;100.00
16016;BME280;8112;53.592;10.184;2022-11-02T23:42:31;101445.88;;;7.45;100.00
16016;BME280;8112;53.592;10.184;2022-11-02T23:47:32;101430.03;;;7.48;100.00
16016;BME280;8112;53.592;10.184;2022-11-02T23:52:52;101420.44;;;7.47;100.00
16016;BME280;8112;53.592;10.184;2022-11-02T23:58:13;101422.19;;;7.46;100.00
